パラオ の空港の天気 - METARとTAF

パラオ国際空港 ( PTRO / ROR ) - パラオ アイライ州
飛行場実況気象(Metar)
観測時間01/29 16:50 PWT (01/29 07:50 UTC)
風向・風速北東 4m/s
視程10km以上
天気現象
全天の4割程度の雲 雲底高度 520m
全天の8割程度の雲 雲底高度 3660m
全天の8割程度の雲 雲底高度 9140m
気温28℃
湿度79%
気圧1008hPa
METARPTRO 290750Z 05007KT 14SM SCT017 BKN120 BKN300 28/24 A2976
過去の天気等 Google飛行場航空写真 Wunderground天気予報

過去48時間のMETAR

飛行場予報(TAF)
発表時間: 1/29 14:20 PWT (1/29 05:20 UTC)
予報対象時間: 29日15時 PWT ~ 30日15時 PWT
風向・風速東北東 5m/s 瞬間風速 8m/s
視程10km以上
天気現象周辺でしゅう雨
全天の4割程度の雲 雲底高度 460m
全天の8割程度の雲 雲底高度 3660m
29日18時 PWT から
風向・風速北東 6m/s
視程10km以上
天気現象周辺でしゅう雨
全天の4割程度の雲 雲底高度 460m
全天の8割程度の雲 雲底高度 3660m
PTRO 290520Z 2906/3006 06010G15KT P6SM VCSH SCT015 BKN120
FM290900 05011KT P6SM VCSH SCT015 BKN120